Time;durP1;ratioP1;P1;durP2;ratioP2;P2;SDS_P1;SDS_P2;PMS_P1;PMS_P2;Temp;Humidity;BMP_temperature;BMP_pressure;BME280_temperature;BME280_humidity;BME280_pressure;Samples;Min_cycle;Max_cycle;Signal;HPM_P1;HPM_P2
2023/12/08 00:02:36;;;;;;;1.10;1.10;;;-5.10;99.90;-3.00;96933.00;;;;5009778;28;20801;-63
2023/12/08 00:05:25;;;;;;;1.20;1.20;;;-4.90;99.90;-2.80;96910.00;;;;5010593;28;20433;-64
2023/12/08 00:08:13;;;;;;;1.50;1.50;;;-4.80;99.90;-3.10;96911.00;;;;5009902;28;20858;-64
2023/12/08 00:11:02;;;;;;;0.90;0.90;;;-4.80;99.90;-3.90;96922.00;;;;5006696;28;20444;-64
2023/12/08 00:13:51;;;;;;;1.03;1.03;;;-5.00;99.90;-4.30;96925.00;;;;5006127;28;20833;-64
2023/12/08 00:16:41;;;;;;;0.93;0.93;;;-5.10;99.90;-4.40;96925.00;;;;5010794;28;20445;-65
2023/12/08 00:19:31;;;;;;;0.80;0.80;;;-5.30;99.90;-3.90;96931.00;;;;5009830;28;20812;-64
2023/12/08 00:22:20;;;;;;;1.67;1.67;;;-5.40;99.90;-3.60;96928.00;;;;5009431;28;20434;-64
2023/12/08 00:25:11;;;;;;;1.20;1.20;;;-5.40;99.90;-3.80;96917.00;;;;5010287;28;20448;-64
2023/12/08 00:27:59;;;;;;;1.10;1.10;;;-5.40;99.90;-3.70;96918.00;;;;5005829;28;20484;-64
2023/12/08 00:30:48;;;;;;;1.20;1.20;;;-5.40;99.90;-3.40;96921.00;;;;5009779;28;20425;-63
2023/12/08 00:33:37;;;;;;;0.90;0.90;;;-5.30;99.90;-3.20;96912.00;;;;5010024;28;20440;-64
2023/12/08 00:36:27;;;;;;;1.20;1.20;;;-5.20;99.90;-2.70;96910.00;;;;5009806;28;20433;-64
2023/12/08 00:39:17;;;;;;;1.70;1.70;;;-5.00;99.90;-2.60;96916.00;;;;5009988;28;20943;-64
2023/12/08 00:42:06;;;;;;;0.90;0.90;;;-4.90;99.90;-3.10;96910.00;;;;5009140;28;20452;-64
2023/12/08 00:44:55;;;;;;;1.27;1.27;;;-4.90;99.90;-3.50;96897.00;;;;5006531;28;20950;-63
2023/12/08 00:47:44;;;;;;;1.10;1.10;;;-4.90;99.90;-4.10;96882.00;;;;5004051;28;20469;-65
2023/12/08 00:50:32;;;;;;;1.07;1.07;;;-5.20;99.90;-5.10;96879.00;;;;5010087;28;20441;-66
2023/12/08 00:53:23;;;;;;;1.20;1.20;;;-5.40;99.90;-5.30;96872.00;;;;5010018;28;20417;-65
2023/12/08 00:56:12;;;;;;;1.13;1.13;;;-5.60;99.90;-4.70;96872.00;;;;5009578;28;20437;-64
2023/12/08 00:59:00;;;;;;;0.90;0.90;;;-5.70;99.90;-4.70;96879.00;;;;5005304;28;20532;-65
2023/12/08 01:01:49;;;;;;;1.07;1.07;;;-5.80;99.90;-4.70;96879.00;;;;5009266;28;20426;-64
2023/12/08 01:04:38;;;;;;;1.40;1.40;;;-5.90;99.90;-4.60;96863.00;;;;5008680;28;20421;-65
2023/12/08 01:07:27;;;;;;;1.13;1.13;;;-5.90;99.90;-4.20;96868.00;;;;5008321;28;20495;-64
2023/12/08 01:10:17;;;;;;;1.43;1.43;;;-5.80;99.90;-3.80;96879.00;;;;5009118;28;20456;-64
2023/12/08 01:13:06;;;;;;;1.10;1.10;;;-5.70;99.90;-4.20;96869.00;;;;5009585;28;20440;-64
2023/12/08 01:15:55;;;;;;;1.20;1.20;;;-5.70;99.90;-4.00;96861.00;;;;5005331;28;20429;-64
2023/12/08 01:18:44;;;;;;;0.97;0.97;;;-5.60;99.90;-3.90;96863.00;;;;5009217;28;20930;-64
2023/12/08 01:21:33;;;;;;;0.97;0.97;;;-5.50;99.90;-3.70;96859.00;;;;5009766;28;20437;-63
2023/12/08 01:24:22;;;;;;;1.30;1.30;;;-5.40;99.90;-3.60;96852.00;;;;5008325;28;20436;-64
2023/12/08 01:27:12;;;;;;;1.30;1.30;;;-5.40;99.90;-3.70;96849.00;;;;5007326;28;20461;-64
2023/12/08 01:30:03;;;;;;;0.90;0.90;;;-5.40;99.90;-4.10;96845.00;;;;5004969;28;20437;-63
2023/12/08 01:32:51;;;;;;;0.97;0.97;;;-5.50;99.90;-4.90;96837.00;;;;5008638;28;20429;-63
2023/12/08 01:35:40;;;;;;;1.27;1.27;;;-5.70;99.90;-4.80;96833.00;;;;5009249;28;20430;-64
2023/12/08 01:38:30;;;;;;;0.80;0.80;;;-5.80;99.90;-4.20;96852.00;;;;5009409;28;20448;-63
2023/12/08 01:41:20;;;;;;;1.30;1.30;;;-5.80;99.90;-4.40;96831.00;;;;5008078;28;20437;-63
2023/12/08 01:44:11;;;;;;;0.87;0.87;;;-5.80;99.90;-4.30;96834.00;;;;5008427;28;20440;-63
2023/12/08 01:46:59;;;;;;;0.77;0.77;;;-5.80;99.90;-4.30;96821.00;;;;5006761;28;20981;-62
2023/12/08 01:49:49;;;;;;;0.90;0.90;;;-5.80;99.90;-4.80;96832.00;;;;5004470;28;20424;-64
2023/12/08 01:52:38;;;;;;;0.90;0.90;;;-5.90;99.90;-4.60;96835.00;;;;5007443;28;20425;-63
2023/12/08 01:55:27;;;;;;;1.20;1.20;;;-5.90;99.90;-4.00;96835.00;;;;5008594;28;20424;-63
2023/12/08 01:58:17;;;;;;;1.20;1.20;;;-5.90;99.90;-3.60;96834.00;;;;5009015;28;20446;-64
2023/12/08 02:01:08;;;;;;;1.10;1.10;;;-5.70;99.90;-4.00;96843.00;;;;5010368;28;20798;-64
2023/12/08 02:03:58;;;;;;;0.90;0.90;;;-5.70;99.90;-4.60;96832.00;;;;5002984;28;20426;-64
2023/12/08 02:06:47;;;;;;;1.17;1.17;;;-5.80;99.90;-5.30;96821.00;;;;5008916;28;20445;-63
2023/12/08 02:09:36;;;;;;;1.20;1.20;;;-6.00;99.90;-5.40;96822.00;;;;5009263;28;20437;-64
2023/12/08 02:12:25;;;;;;;1.43;1.43;;;-6.20;99.90;-5.30;96820.00;;;;5008166;28;20746;-64
2023/12/08 02:15:14;;;;;;;1.07;1.07;;;-6.20;99.90;-4.60;96819.00;;;;5007882;28;21001;-64
2023/12/08 02:18:05;;;;;;;1.00;1.00;;;-6.20;99.90;-4.40;96821.00;;;;5009083;28;20445;-64
2023/12/08 02:20:54;;;;;;;1.53;1.53;;;-6.20;99.90;-4.50;96819.00;;;;5006119;28;20437;-64
2023/12/08 02:23:48;;;;;;;1.10;1.10;;;-6.10;99.90;-4.50;96812.00;;;;5002740;28;20429;-64
2023/12/08 02:26:37;;;;;;;0.90;0.90;;;-6.10;99.90;-5.00;96813.00;;;;5009364;28;20488;-63
2023/12/08 02:29:26;;;;;;;1.23;1.23;;;-6.20;99.90;-5.50;96787.00;;;;5008713;28;20858;-65
2023/12/08 02:32:23;;;;;;;1.10;1.10;;;-6.30;99.90;-4.90;96799.00;;;;5006973;28;20437;-63
2023/12/08 02:35:14;;;;;;;1.47;1.47;;;-6.30;99.90;-4.90;96799.00;;;;5004354;28;20436;-65
2023/12/08 02:38:05;;;;;;;1.10;1.10;;;-6.30;99.90;-5.60;96790.00;;;;5004493;28;20973;-65
2023/12/08 02:40:56;;;;;;;1.10;1.10;;;-6.40;99.90;-5.60;96789.00;;;;5002657;28;20895;-63
2023/12/08 02:43:45;;;;;;;1.10;1.10;;;-6.50;99.90;-5.30;96795.00;;;;5008321;28;20429;-64
2023/12/08 02:46:34;;;;;;;0.90;0.90;;;-6.40;99.90;-5.00;96785.00;;;;5007817;28;21145;-63
2023/12/08 02:49:22;;;;;;;1.40;1.40;;;-6.40;99.90;-4.20;96796.00;;;;5008340;28;20479;-63
2023/12/08 02:52:11;;;;;;;1.23;1.23;;;-6.20;99.90;-4.50;96795.00;;;;5005336;28;20467;-64
2023/12/08 02:55:01;;;;;;;0.90;0.90;;;-6.10;99.90;-4.40;96796.00;;;;5006310;28;20432;-64
2023/12/08 02:57:51;;;;;;;1.10;1.10;;;-6.10;99.90;-4.20;96788.00;;;;5008240;28;20449;-63
2023/12/08 03:00:40;;;;;;;1.10;1.10;;;-6.10;99.90;-4.40;96784.00;;;;5012965;28;20429;-63
2023/12/08 03:03:29;;;;;;;0.90;0.90;;;-6.10;99.90;-4.70;96783.00;;;;5010525;28;20433;-63
2023/12/08 03:06:17;;;;;;;1.20;1.20;;;-6.10;99.90;-5.00;96770.00;;;;5012490;28;20433;-64
2023/12/08 03:09:06;;;;;;;0.83;0.83;;;-6.20;99.90;-5.80;96735.00;;;;5012085;28;21019;-64
2023/12/08 03:11:55;;;;;;;1.10;1.10;;;-6.30;99.90;-5.90;96756.00;;;;5007386;28;20437;-66
2023/12/08 03:14:45;;;;;;;0.83;0.83;;;-6.50;99.90;-6.10;96748.00;;;;5012495;28;20436;-65
2023/12/08 03:17:35;;;;;;;1.20;1.20;;;-6.70;99.90;-5.40;96749.00;;;;5012026;28;20461;-65
2023/12/08 03:20:24;;;;;;;1.27;1.27;;;-6.60;99.90;-5.90;96754.00;;;;5012089;28;21148;-64
2023/12/08 03:23:13;;;;;;;1.23;1.23;;;-6.60;99.90;-5.80;96748.00;;;;5011405;28;20440;-67
2023/12/08 03:26:01;;;;;;;1.00;1.00;;;-6.70;99.90;-5.70;96739.00;;;;5011457;28;20451;-66
2023/12/08 03:28:50;;;;;;;1.00;1.00;;;-6.70;99.90;-5.40;96731.00;;;;5007506;28;20456;-67
2023/12/08 03:31:40;;;;;;;0.80;0.80;;;-6.60;99.90;-5.50;96750.00;;;;5010953;28;20452;-67
2023/12/08 03:34:29;;;;;;;0.80;0.80;;;-6.60;99.90;-5.30;96746.00;;;;5011231;28;20436;-64
2023/12/08 03:37:18;;;;;;;0.97;0.97;;;-4.70;99.90;-4.70;96745.00;;;;5011829;28;20457;-64
2023/12/08 03:40:09;;;;;;;1.00;1.00;;;-6.40;99.90;-4.20;96740.00;;;;5011684;28;20429;-64
2023/12/08 03:42:57;;;;;;;1.00;1.00;;;-6.20;99.90;-4.40;96733.00;;;;5005809;28;20425;-63
2023/12/08 03:45:46;;;;;;;1.00;1.00;;;-6.20;99.90;-4.60;96731.00;;;;5011338;28;20433;-65
2023/12/08 03:48:37;;;;;;;1.00;1.00;;;-6.10;99.90;-3.80;96733.00;;;;5010672;28;20461;-64
2023/12/08 03:51:26;;;;;;;1.27;1.27;;;-5.90;99.90;-4.70;96721.00;;;;5010897;28;20482;-63
2023/12/08 03:54:15;;;;;;;1.50;1.50;;;-6.00;99.90;-5.70;96713.00;;;;5011016;28;20433;-65
2023/12/08 03:57:04;;;;;;;0.70;0.70;;;-6.30;99.90;-5.70;96720.00;;;;5007686;28;20460;-64
2023/12/08 03:59:53;;;;;;;1.03;1.03;;;-6.50;99.90;-4.70;96727.00;;;;5009993;28;20425;-64
2023/12/08 04:02:41;;;;;;;1.00;1.00;;;-6.50;99.90;-4.40;96730.00;;;;5005272;28;20433;-66
2023/12/08 04:05:32;;;;;;;1.03;1.03;;;-6.40;99.90;-4.60;96723.00;;;;5010623;28;20417;-64
2023/12/08 04:08:21;;;;;;;1.53;1.53;;;-6.40;99.90;-4.90;96725.00;;;;5010022;28;20458;-65
2023/12/08 04:11:11;;;;;;;1.20;1.20;;;-6.40;99.90;-5.00;96727.00;;;;5009903;28;20440;-65
2023/12/08 04:13:59;;;;;;;1.00;1.00;;;-6.40;99.90;-5.20;96723.00;;;;5005047;28;20533;-64
2023/12/08 04:16:51;;;;;;;1.33;1.33;;;-6.40;99.90;-5.00;96727.00;;;;5004483;28;20441;-66
2023/12/08 04:19:40;;;;;;;1.00;1.00;;;-6.30;99.90;-3.90;96745.00;;;;5010756;28;20456;-67
2023/12/08 04:22:31;;;;;;;1.30;1.30;;;-6.20;99.90;-3.60;96735.00;;;;5009799;28;20433;-67
2023/12/08 04:25:20;;;;;;;1.30;1.30;;;-6.00;99.90;-5.00;96718.00;;;;5010153;28;20449;-66
2023/12/08 04:28:09;;;;;;;1.07;1.07;;;-6.10;99.90;-5.10;96718.00;;;;5009863;28;20445;-67
2023/12/08 04:30:58;;;;;;;1.00;1.00;;;-6.30;99.90;-5.20;96707.00;;;;5009038;28;20430;-66
2023/12/08 04:33:48;;;;;;;0.80;0.80;;;-6.40;99.90;-5.20;96713.00;;;;5005822;28;20425;-66
2023/12/08 04:36:37;;;;;;;0.73;0.73;;;-6.50;99.90;-5.40;96713.00;;;;5010731;28;20441;-66
2023/12/08 04:39:27;;;;;;;1.20;1.20;;;-6.60;99.90;-6.00;96708.00;;;;5009950;28;20425;-67
2023/12/08 04:42:17;;;;;;;1.50;1.50;;;-6.70;99.90;-6.00;96704.00;;;;5009360;28;20433;-67
2023/12/08 04:45:07;;;;;;;1.10;1.10;;;-6.80;99.90;-5.90;96708.00;;;;5010363;28;20447;-66
2023/12/08 04:47:58;;;;;;;1.00;1.00;;;-6.80;99.90;-5.60;96724.00;;;;5004191;28;20441;-66
2023/12/08 04:50:47;;;;;;;1.20;1.20;;;-6.90;99.90;-4.90;96722.00;;;;5010472;28;20958;-66
2023/12/08 04:53:36;;;;;;;1.00;1.00;;;-6.80;99.90;-4.70;96723.00;;;;5009250;28;20864;-66
2023/12/08 04:56:26;;;;;;;1.43;1.43;;;-6.70;99.90;-4.20;96733.00;;;;5009644;28;20437;-66
2023/12/08 04:59:15;;;;;;;1.60;1.60;;;-6.50;99.90;-4.60;96716.00;;;;5009637;28;20437;-67
2023/12/08 05:02:04;;;;;;;0.90;0.90;;;-6.50;99.90;-5.20;96714.00;;;;5005986;28;20437;-66
2023/12/08 05:04:53;;;;;;;1.00;1.00;;;-6.50;99.90;-5.60;96714.00;;;;5010112;28;20429;-67
2023/12/08 05:07:42;;;;;;;0.80;0.80;;;-6.70;99.90;-5.40;96712.00;;;;5005883;28;20472;-65
2023/12/08 05:10:31;;;;;;;0.87;0.87;;;-6.70;99.90;-5.50;96718.00;;;;5009830;28;20492;-67
2023/12/08 05:13:21;;;;;;;1.30;1.30;;;-6.80;99.90;-5.10;96719.00;;;;5009027;28;20433;-68
2023/12/08 05:16:12;;;;;;;0.80;0.80;;;-6.80;99.90;-5.10;96730.00;;;;5009255;28;20386;-64
2023/12/08 05:19:01;;;;;;;1.00;1.00;;;-6.80;99.90;-5.60;96718.00;;;;5037654;23;20488;-84
2023/12/08 05:21:50;;;;;;;1.20;1.20;;;-6.80;99.90;-5.90;96717.00;;;;5028476;28;20441;-83
2023/12/08 05:24:39;;;;;;;0.93;0.93;;;-6.90;99.90;-6.60;96714.00;;;;5034936;28;20432;-84
2023/12/08 05:27:27;;;;;;;1.00;1.00;;;-7.00;99.90;-6.50;96704.00;;;;5033477;28;20428;-84
2023/12/08 05:30:18;;;;;;;1.10;1.10;;;-7.10;99.90;-6.30;96705.00;;;;5033616;28;20464;-83
2023/12/08 05:33:07;;;;;;;0.80;0.80;;;-7.20;99.90;-5.50;96712.00;;;;5034294;28;20426;-84
2023/12/08 05:35:55;;;;;;;1.20;1.20;;;-7.10;99.90;-4.90;96712.00;;;;5035828;28;20456;-84
2023/12/08 05:38:45;;;;;;;0.97;0.97;;;-7.00;99.90;-5.10;96717.00;;;;5034957;28;20436;-83
2023/12/08 05:41:35;;;;;;;1.00;1.00;;;-6.90;99.90;-5.00;96720.00;;;;5035052;28;20803;-81
2023/12/08 05:44:24;;;;;;;0.97;0.97;;;-6.80;99.90;-4.90;96719.00;;;;5033635;28;20436;-84
2023/12/08 05:47:14;;;;;;;1.10;1.10;;;-6.70;99.90;-5.50;96700.00;;;;5032274;28;20945;-84
2023/12/08 05:50:04;;;;;;;1.00;1.00;;;-6.70;99.90;-5.40;96711.00;;;;5034391;28;20577;-84
2023/12/08 05:52:53;;;;;;;1.17;1.17;;;-6.70;99.90;-5.60;96716.00;;;;5028937;28;20417;-84
2023/12/08 05:55:42;;;;;;;0.93;0.93;;;-6.90;99.90;-5.30;96708.00;;;;5027893;28;20966;-84
2023/12/08 05:58:32;;;;;;;1.00;1.00;;;-6.80;99.90;-5.20;96707.00;;;;5034335;28;20447;-84
2023/12/08 06:01:22;;;;;;;1.30;1.30;;;-6.90;99.90;-5.60;96705.00;;;;5034576;28;20420;-84
2023/12/08 06:04:13;;;;;;;1.00;1.00;;;-6.80;99.90;-5.90;96690.00;;;;5034148;28;20425;-82
2023/12/08 06:07:01;;;;;;;0.77;0.77;;;-7.00;99.90;-5.80;96693.00;;;;5029763;28;20440;-84
2023/12/08 06:09:50;;;;;;;1.00;1.00;;;-7.10;99.90;-5.70;96686.00;;;;5033523;28;20460;-84
2023/12/08 06:12:40;;;;;;;0.80;0.80;;;-7.00;99.90;-5.30;96689.00;;;;5034699;28;20786;-84
2023/12/08 06:15:28;;;;;;;1.33;1.33;;;-7.00;99.90;-5.00;96688.00;;;;5035768;28;20450;-84
2023/12/08 06:18:17;;;;;;;0.93;0.93;;;-6.90;99.90;-5.40;96676.00;;;;5051770;28;20463;-82
2023/12/08 06:21:08;;;;;;;0.90;0.90;;;-6.90;99.90;-6.10;96659.00;;;;5044851;28;20969;-84
2023/12/08 06:23:57;;;;;;;0.60;0.60;;;-7.00;99.90;-5.90;96667.00;;;;5031179;28;20420;-84
2023/12/08 06:26:46;;;;;;;0.83;0.83;;;-7.10;99.90;-5.90;96672.00;;;;5026358;28;20524;-84
2023/12/08 06:29:35;;;;;;;0.90;0.90;;;-7.20;99.90;-6.10;96647.00;;;;5032356;28;21376;-83
2023/12/08 06:32:27;;;;;;;1.53;1.53;;;-7.20;99.90;-6.10;96651.00;;;;5032732;28;20444;-84
2023/12/08 06:35:16;;;;;;;1.13;1.13;;;-7.30;99.90;-6.00;96657.00;;;;5029957;28;20842;-84
2023/12/08 06:38:07;;;;;;;0.90;0.90;;;-7.30;99.90;-6.00;96661.00;;;;5030688;28;20455;-82
2023/12/08 06:40:55;;;;;;;1.23;1.23;;;-7.20;99.90;-5.30;96667.00;;;;5028900;28;20448;-84
2023/12/08 06:43:44;;;;;;;0.80;0.80;;;-7.10;99.90;-5.30;96657.00;;;;5030572;28;20436;-84
2023/12/08 06:46:33;;;;;;;0.70;0.70;;;-7.00;99.90;-4.70;96672.00;;;;5032042;28;20452;-84
2023/12/08 06:49:22;;;;;;;1.80;1.80;;;-6.80;99.90;-4.60;96670.00;;;;5029471;28;20420;-82
2023/12/08 06:52:11;;;;;;;1.40;1.40;;;-6.60;99.90;-4.40;96679.00;;;;5028592;28;20440;-82
2023/12/08 06:55:02;;;;;;;0.97;0.97;;;-6.50;99.90;-4.70;96685.00;;;;5029526;28;20456;-82
2023/12/08 06:57:50;;;;;;;1.20;1.20;;;-6.40;99.90;-4.70;96679.00;;;;5029455;28;20436;-81
2023/12/08 07:00:39;;;;;;;1.10;1.10;;;-6.40;99.90;-4.70;96689.00;;;;5027291;28;20429;-82
2023/12/08 07:03:28;;;;;;;1.30;1.30;;;-5.10;99.90;-4.80;96695.00;;;;5030418;28;20813;-82
2023/12/08 07:06:17;;;;;;;1.10;1.10;;;-6.30;99.90;-5.20;96706.00;;;;5026669;28;20890;-82
2023/12/08 07:09:06;;;;;;;1.15;1.15;;;-6.40;99.90;-5.30;96702.00;;;;5029756;28;20461;-81
2023/12/08 07:11:56;;;;;;;1.07;1.07;;;-6.50;99.90;-5.00;96704.00;;;;5030773;28;20432;-82
2023/12/08 07:14:46;;;;;;;1.10;1.10;;;-6.40;99.90;-5.10;96704.00;;;;5029649;28;20433;-82
2023/12/08 07:17:35;;;;;;;0.87;0.87;;;-6.50;99.90;-4.70;96699.00;;;;5030943;28;20440;-81
2023/12/08 07:20:24;;;;;;;1.37;1.37;;;-6.40;99.90;-4.40;96698.00;;;;5025747;28;20451;-81
2023/12/08 07:23:13;;;;;;;1.10;1.10;;;-6.40;99.90;-4.40;96698.00;;;;5029232;28;20458;-81
2023/12/08 07:26:02;;;;;;;1.30;1.30;;;-6.30;99.90;-4.00;96694.00;;;;5028671;28;20452;-82
2023/12/08 07:28:52;;;;;;;1.40;1.40;;;-6.10;99.90;-4.10;96687.00;;;;5024679;28;20469;-82
2023/12/08 07:31:41;;;;;;;1.40;1.40;;;-6.00;99.90;-4.80;96683.00;;;;5029765;28;20476;-82
2023/12/08 07:34:29;;;;;;;1.30;1.30;;;-6.00;99.90;-5.20;96683.00;;;;5032387;28;20426;-81
2023/12/08 07:37:18;;;;;;;1.60;1.60;;;-6.10;99.90;-5.80;96669.00;;;;5044450;28;20462;-80
2023/12/08 07:40:09;;;;;;;0.90;0.90;;;-6.30;99.90;-5.30;96687.00;;;;5029255;28;20457;-82
2023/12/08 07:42:58;;;;;;;1.13;1.13;;;-6.30;99.90;-4.40;96686.00;;;;5027004;28;20436;-82
2023/12/08 07:45:50;;;;;;;1.23;1.23;;;-6.20;99.90;-4.50;96675.00;;;;5025709;28;20478;-82
2023/12/08 07:48:39;;;;;;;1.30;1.30;;;-6.20;99.90;-4.50;96670.00;;;;5027626;28;20453;-82
2023/12/08 07:51:28;;;;;;;1.20;1.20;;;-6.10;99.90;-3.70;96664.00;;;;5027368;28;20471;-81
2023/12/08 07:54:17;;;;;;;1.50;1.50;;;-5.90;99.90;-3.50;96675.00;;;;5025133;28;20444;-83
2023/12/08 07:57:07;;;;;;;1.10;1.10;;;-5.70;99.90;-3.80;96675.00;;;;5027376;28;20432;-82
2023/12/08 07:59:56;;;;;;;1.00;1.00;;;-5.60;99.90;-3.70;96665.00;;;;5028645;28;20388;-81
2023/12/08 08:02:46;;;;;;;1.00;1.00;;;-5.50;99.90;-3.00;96671.00;;;;5031643;28;20421;-81
2023/12/08 08:05:35;;;;;;;1.30;1.30;;;-5.30;99.90;-3.20;96680.00;;;;5029292;28;20464;-82
2023/12/08 08:08:24;;;;;;;1.20;1.20;;;-5.20;99.90;-3.60;96680.00;;;;5031058;28;20486;-82
2023/12/08 08:11:13;;;;;;;0.97;0.97;;;-3.80;99.90;-3.60;96677.00;;;;5028420;28;20472;-81
2023/12/08 08:14:02;;;;;;;1.10;1.10;;;-5.20;99.90;-4.70;96655.00;;;;5030210;28;20432;-83
2023/12/08 08:16:51;;;;;;;1.30;1.30;;;-5.30;99.90;-3.60;96668.00;;;;5030922;28;20464;-82
2023/12/08 08:19:41;;;;;;;1.00;1.00;;;-5.30;99.90;-4.00;96661.00;;;;5029835;28;20447;-81
2023/12/08 08:22:31;;;;;;;1.30;1.30;;;-5.30;99.90;-3.50;96664.00;;;;5027300;28;20694;-82
2023/12/08 08:25:20;;;;;;;1.50;1.50;;;-5.10;99.90;-3.10;96671.00;;;;5031494;28;21396;-81
2023/12/08 08:28:09;;;;;;;1.10;1.10;;;-3.60;99.90;-3.00;96668.00;;;;5028578;28;20420;-81
2023/12/08 08:30:58;;;;;;;1.20;1.20;;;-4.50;99.90;-3.30;96663.00;;;;5027299;28;20464;-82
2023/12/08 08:33:47;;;;;;;1.03;1.03;;;-4.80;99.90;-2.60;96678.00;;;;5028982;28;20440;-82
2023/12/08 08:36:37;;;;;;;0.90;0.90;;;-4.60;99.90;-2.90;96672.00;;;;5028604;28;20468;-83
2023/12/08 08:39:27;;;;;;;1.53;1.53;;;-4.50;99.90;-3.00;96686.00;;;;5023038;28;20467;-81
2023/12/08 08:42:16;;;;;;;3.03;2.93;;;-4.50;99.90;-2.60;96687.00;;;;5025627;28;20987;-82
2023/12/08 08:45:07;;;;;;;1.17;1.17;;;-4.50;99.90;-2.40;96684.00;;;;5024661;28;20480;-82
2023/12/08 08:47:56;;;;;;;1.00;1.00;;;-4.40;99.90;-2.50;96680.00;;;;5021926;28;20444;-82
2023/12/08 08:50:45;;;;;;;1.20;1.20;;;-3.90;99.90;-2.30;96680.00;;;;5030278;28;20472;-82
2023/12/08 08:53:36;;;;;;;1.00;1.00;;;-4.30;99.90;-2.60;96681.00;;;;5027123;28;20498;-82
2023/12/08 08:56:25;;;;;;;1.17;1.17;;;-4.30;99.90;-2.50;96685.00;;;;5024134;28;20464;-81
2023/12/08 08:59:14;;;;;;;1.13;1.13;;;-4.60;99.90;-2.20;96689.00;;;;5026016;28;20424;-80
2023/12/08 09:02:03;;;;;;;0.90;0.90;;;-4.20;99.90;-1.80;96690.00;;;;5027114;28;20439;-82
2023/12/08 09:04:52;;;;;;;1.20;1.20;;;-4.00;99.90;-1.80;96688.00;;;;5028525;28;20446;-82
2023/12/08 09:07:44;;;;;;;1.27;1.27;;;-3.90;99.90;-1.70;96691.00;;;;5027011;28;20447;-82
2023/12/08 09:10:34;;;;;;;0.97;0.97;;;-3.80;99.90;-1.50;96687.00;;;;5027831;28;20448;-83
2023/12/08 09:13:23;;;;;;;1.40;1.40;;;-3.70;99.90;-1.40;96697.00;;;;5031175;28;20431;-81
2023/12/08 09:16:12;;;;;;;1.00;1.00;;;-3.40;99.90;-1.00;96698.00;;;;5024875;28;20992;-82
2023/12/08 09:19:01;;;;;;;1.20;1.20;;;-3.30;99.90;-0.70;96692.00;;;;5027516;28;20460;-81
2023/12/08 09:21:50;;;;;;;1.10;1.10;;;-3.20;99.90;-0.70;96697.00;;;;5030985;28;20425;-83
2023/12/08 09:24:39;;;;;;;0.97;0.97;;;-3.10;99.90;-0.70;96689.00;;;;5032148;28;20444;-81
2023/12/08 09:27:30;;;;;;;1.30;1.30;;;-2.90;99.90;-0.20;96687.00;;;;5029709;28;20428;-81
2023/12/08 09:30:19;;;;;;;1.23;1.23;;;-2.70;99.90;0.30;96688.00;;;;5025472;28;20436;-81
2023/12/08 09:33:09;;;;;;;1.00;1.00;;;-2.50;99.90;0.80;96674.00;;;;5028747;28;20424;-82
2023/12/08 09:35:58;;;;;;;1.60;1.60;;;-2.30;99.90;1.00;96680.00;;;;5026551;28;20501;-82
2023/12/08 09:38:48;;;;;;;1.30;1.30;;;-2.00;99.90;1.20;96678.00;;;;5031664;28;20428;-81
2023/12/08 09:41:40;;;;;;;1.23;1.23;;;-1.80;99.90;1.40;96670.00;;;;5025075;28;20435;-80
2023/12/08 09:44:31;;;;;;;1.50;1.50;;;-1.60;99.90;1.60;96669.00;;;;5027574;28;20447;-82
2023/12/08 09:47:21;;;;;;;1.40;1.40;;;-1.40;99.90;1.60;96655.00;;;;5025732;28;21348;-82
2023/12/08 09:50:12;;;;;;;0.90;0.90;;;-1.20;99.90;2.20;96661.00;;;;5028868;28;20494;-82
2023/12/08 09:53:02;;;;;;;0.90;0.90;;;-1.00;99.90;2.20;96663.00;;;;5028898;28;21016;-81
2023/12/08 09:55:53;;;;;;;1.73;1.63;;;-0.80;99.90;2.30;96665.00;;;;5029559;28;20467;-83
2023/12/08 09:58:43;;;;;;;0.93;0.93;;;-0.70;99.90;2.40;96653.00;;;;5031121;28;20467;-81
2023/12/08 10:01:34;;;;;;;1.40;1.40;;;-0.60;99.90;2.10;96650.00;;;;5026457;28;20953;-82
2023/12/08 10:04:26;;;;;;;0.93;0.93;;;-0.50;99.90;2.70;96638.00;;;;5029318;28;20448;-82
2023/12/08 10:07:15;;;;;;;1.60;1.50;;;-0.40;99.90;2.70;96637.00;;;;5028879;28;20432;-82
2023/12/08 10:10:08;;;;;;;0.80;0.80;;;-0.30;99.90;2.70;96628.00;;;;5030971;28;20424;-82
2023/12/08 10:12:58;;;;;;;0.90;0.90;;;-0.20;99.90;3.00;96634.00;;;;5029880;28;20480;-82
2023/12/08 10:15:47;;;;;;;1.50;1.40;;;0.00;99.90;2.30;96626.00;;;;5021623;28;20491;-82
2023/12/08 10:18:40;;;;;;;0.90;0.90;;;0.10;99.90;1.80;96628.00;;;;5019640;28;20444;-82
2023/12/08 10:21:29;;;;;;;1.43;1.43;;;0.10;99.90;1.70;96611.00;;;;5028955;28;20478;-83
2023/12/08 10:24:19;;;;;;;0.83;0.83;;;0.00;99.90;2.00;96623.00;;;;5030698;28;20428;-82
2023/12/08 10:27:10;;;;;;;0.80;0.80;;;-0.10;99.90;3.20;96624.00;;;;5026744;28;20443;-82
2023/12/08 10:30:04;;;;;;;0.87;0.87;;;0.10;99.90;2.70;96627.00;;;;5030702;28;20812;-82
2023/12/08 10:32:53;;;;;;;0.90;0.90;;;0.40;99.90;2.80;96624.00;;;;5029822;28;20460;-82
2023/12/08 10:35:45;;;;;;;1.23;1.20;;;0.50;99.90;3.60;96625.00;;;;5027198;28;20456;-81
2023/12/08 10:38:34;;;;;;;1.80;1.70;;;0.70;99.90;3.00;96622.00;;;;5029595;28;20930;-83
2023/12/08 10:41:23;;;;;;;2.03;1.93;;;1.00;99.90;3.10;96608.00;;;;5023219;28;20436;-82
2023/12/08 10:44:14;;;;;;;1.00;1.00;;;1.30;99.90;2.70;96615.00;;;;5023424;28;20529;-81
2023/12/08 10:47:03;;;;;;;1.20;1.20;;;1.40;99.90;4.10;96622.00;;;;5028214;28;20439;-82
2023/12/08 10:49:54;;;;;;;0.70;0.70;;;1.60;99.90;4.70;96614.00;;;;5028044;28;20344;-82
2023/12/08 10:52:44;;;;;;;0.90;0.90;;;1.90;99.90;4.60;96606.00;;;;5025960;28;20483;-82
2023/12/08 10:55:33;;;;;;;1.97;1.87;;;2.20;99.90;5.00;96611.00;;;;5020943;28;20455;-83
2023/12/08 10:58:23;;;;;;;1.80;1.70;;;2.40;99.90;4.60;96605.00;;;;5022686;28;20432;-82
2023/12/08 11:01:15;;;;;;;0.93;0.93;;;2.60;99.90;4.90;96598.00;;;;5026156;28;20217;-82
2023/12/08 11:04:07;;;;;;;1.00;1.00;;;2.60;99.90;5.20;96590.00;;;;5018635;28;20209;-83
2023/12/08 11:07:02;;;;;;;1.20;1.20;;;2.80;99.90;4.80;96585.00;;;;5019703;28;20218;-81
2023/12/08 11:09:58;;;;;;;1.10;1.10;;;2.80;99.90;5.70;96579.00;;;;5022673;28;20197;-83
2023/12/08 11:12:56;;;;;;;1.10;1.10;;;3.10;99.90;5.30;96583.00;;;;5023170;28;20248;-82
2023/12/08 11:16:06;;;;;;;1.50;1.40;;;3.30;99.90;5.00;96569.00;;;;5020174;28;20217;-82
2023/12/08 11:18:57;;;;;;;1.50;1.40;;;3.50;99.90;5.90;96574.00;;;;5029159;28;20589;-84
2023/12/08 11:21:45;;;;;;;1.20;1.20;;;3.60;99.90;6.40;96585.00;;;;5028520;28;20770;-82
2023/12/08 11:24:36;;;;;;;1.63;1.53;;;3.90;99.90;6.70;96571.00;;;;5032204;28;20301;-83
2023/12/08 11:27:36;;;;;;;1.80;1.70;;;4.10;99.90;6.50;96553.00;;;;5028760;28;20682;-84
2023/12/08 11:30:36;;;;;;;1.73;1.63;;;4.40;99.90;6.90;96561.00;;;;5031358;28;20769;-84
2023/12/08 11:33:38;;;;;;;1.40;1.30;;;4.60;99.90;6.50;96561.00;;;;5029829;28;20694;-84
2023/12/08 11:36:29;;;;;;;1.20;1.20;;;4.60;99.90;5.90;96547.00;;;;5028537;28;20249;-83
2023/12/08 11:39:43;;;;;;;1.60;1.50;;;4.60;99.90;6.80;96556.00;;;;5021241;28;20202;-82
2023/12/08 11:42:34;;;;;;;1.57;1.47;;;4.80;99.90;6.80;96554.00;;;;5029464;28;20205;-84
2023/12/08 11:45:23;;;;;;;1.10;1.10;;;4.70;99.90;7.10;96543.00;;;;5034184;28;20588;-84
2023/12/08 11:48:15;;;;;;;1.83;1.73;;;4.80;99.90;7.40;96551.00;;;;5027270;28;20210;-82
2023/12/08 11:51:06;;;;;;;1.40;1.33;;;4.90;99.90;7.60;96549.00;;;;5030904;28;20271;-83
2023/12/08 11:53:56;;;;;;;1.10;1.10;;;5.10;99.90;8.00;96532.00;;;;5030281;28;20231;-84
2023/12/08 11:56:45;;;;;;;2.07;1.87;;;5.40;99.90;8.50;96539.00;;;;5028070;28;20262;-83
2023/12/08 11:59:43;;;;;;;2.87;2.30;;;5.70;99.90;8.50;96539.00;;;;5025073;28;20202;-83
2023/12/08 12:02:32;;;;;;;5.50;3.50;;;6.20;99.90;7.80;96533.00;;;;5021570;28;20222;-83
2023/12/08 12:05:21;;;;;;;4.30;2.73;;;6.20;98.20;7.40;96533.00;;;;5020895;28;20236;-83
2023/12/08 12:08:12;;;;;;;2.47;1.60;;;5.90;97.80;7.50;96535.00;;;;5032543;28;20197;-83
2023/12/08 12:11:03;;;;;;;2.90;1.90;;;5.70;98.50;7.40;96529.00;;;;5022854;28;20260;-83
2023/12/08 12:13:56;;;;;;;3.77;1.93;;;5.40;98.40;7.70;96532.00;;;;5033085;28;20312;-83
2023/12/08 12:16:47;;;;;;;6.23;2.80;;;5.40;99.00;8.20;96540.00;;;;5033774;28;20236;-83
2023/12/08 12:19:36;;;;;;;4.53;2.47;;;5.60;99.30;8.50;96538.00;;;;5033033;28;20209;-83
2023/12/08 12:22:25;;;;;;;11.97;5.47;;;5.80;99.20;8.70;96519.00;;;;5030238;28;20201;-83
2023/12/08 12:25:14;;;;;;;3.57;1.50;;;6.10;98.00;9.30;96516.00;;;;5035769;28;20221;-82
2023/12/08 12:28:03;;;;;;;4.57;1.77;;;6.60;98.20;9.90;96520.00;;;;5022223;28;20212;-82
2023/12/08 12:30:52;;;;;;;9.83;4.17;;;7.40;99.90;10.60;96527.00;;;;5030084;28;20216;-83
2023/12/08 12:33:44;;;;;;;3.67;1.90;;;7.40;97.30;10.10;96522.00;;;;5025891;28;20228;-83
2023/12/08 12:36:36;;;;;;;6.50;3.23;;;7.70;96.00;9.90;96516.00;;;;5027151;28;20605;-83
2023/12/08 12:39:25;;;;;;;10.60;4.90;;;7.80;94.90;10.80;96513.00;;;;5022184;28;20209;-83